Time;durP1;ratioP1;P1;durP2;ratioP2;P2;SDS_P1;SDS_P2;PMS_P1;PMS_P2;Temp;Humidity;BMP_temperature;BMP_pressure;BME280_temperature;BME280_humidity;BME280_pressure;Samples;Min_cycle;Max_cycle;Signal;HPM_P1;HPM_P2
2022/12/29 00:01:28;;;;;;;16.77;9.07;;;;;;;4.64;96.35;95552.00;5123862;27;20213;-79
2022/12/29 00:03:55;;;;;;;18.98;10.27;;;;;;;4.60;96.18;95564.31;5126793;27;20287;-79
2022/12/29 00:06:21;;;;;;;16.20;8.07;;;;;;;4.75;95.85;95558.97;5122407;27;20698;-79
2022/12/29 00:08:48;;;;;;;16.73;9.10;;;;;;;4.75;94.91;95558.97;5116538;27;20235;-79
2022/12/29 00:11:16;;;;;;;14.20;9.05;;;;;;;4.49;95.81;95560.03;5123511;27;20208;-79
2022/12/29 00:16:30;;;;;;;16.83;8.85;;;;;;;4.53;97.42;95574.50;5126156;27;20648;-79
2022/12/29 00:18:57;;;;;;;22.88;9.73;;;;;;;4.54;97.26;95570.75;5119259;27;20226;-79
2022/12/29 00:35:29;;;;;;;23.58;7.97;;;;;;;4.46;94.97;95572.09;5112403;28;20221;-79
2022/12/29 00:46:11;;;;;;;8.48;5.80;;;;;;;4.30;94.26;95578.47;5114869;27;20270;-78
2022/12/29 00:51:24;;;;;;;8.20;5.40;;;;;;;4.37;94.91;95583.59;5111577;28;20654;-79
2022/12/29 00:53:51;;;;;;;11.45;6.57;;;;;;;4.40;95.03;95575.81;5125289;27;20292;-79
2022/12/29 00:56:18;;;;;;;15.32;6.55;;;;;;;4.46;95.09;95582.81;5117747;27;20205;-79
2022/12/29 00:58:44;;;;;;;15.88;5.63;;;;;;;4.55;95.45;95580.41;5125336;27;20614;-78
2022/12/29 01:01:11;;;;;;;13.45;6.15;;;;;;;4.72;94.83;95585.53;5124590;27;20727;-79
2022/12/29 01:03:40;;;;;;;12.55;6.70;;;;;;;4.55;94.06;95577.72;5111333;28;20279;-79
2022/12/29 01:06:09;;;;;;;21.83;8.65;;;;;;;4.44;94.81;95584.94;5131688;27;20284;-79
2022/12/29 01:08:36;;;;;;;12.32;7.75;;;;;;;4.32;95.42;95575.53;5118057;27;20201;-79
2022/12/29 01:11:04;;;;;;;12.48;6.75;;;;;;;4.20;95.97;95573.91;5131566;27;20201;-79
2022/12/29 01:13:31;;;;;;;9.95;6.40;;;;;;;4.20;95.97;95579.25;5129987;27;20233;-78
2022/12/29 01:15:58;;;;;;;10.52;6.20;;;;;;;4.13;96.41;95573.34;5119106;27;20249;-79
2022/12/29 01:18:26;;;;;;;16.48;8.68;;;;;;;4.01;96.89;95575.44;5130172;27;20220;-79
2022/12/29 01:21:01;;;;;;;10.55;7.25;;;;;;;3.92;97.27;95577.84;5119704;27;20671;-79
2022/12/29 01:23:28;;;;;;;15.80;7.75;;;;;;;3.83;97.86;95574.03;5117897;27;20196;-79
2022/12/29 01:25:54;;;;;;;14.77;7.07;;;;;;;3.82;98.53;95569.75;5132335;27;20244;-78
2022/12/29 01:28:21;;;;;;;19.83;8.25;;;;;;;3.75;98.79;95571.03;5114639;27;20198;-79
2022/12/29 01:30:48;;;;;;;19.58;7.60;;;;;;;3.71;98.88;95580.66;5121178;27;20200;-78
2022/12/29 01:33:15;;;;;;;29.85;6.90;;;;;;;3.72;99.09;95572.38;5117880;27;20201;-80
2022/12/29 01:35:42;;;;;;;13.85;6.97;;;;;;;3.70;99.20;95568.34;5120956;27;20218;-78
2022/12/29 01:38:10;;;;;;;14.18;7.75;;;;;;;3.74;99.17;95561.41;5124327;27;20202;-79
2022/12/29 01:40:45;;;;;;;13.52;7.13;;;;;;;3.82;99.09;95560.91;5122180;27;20199;-79
2022/12/29 01:43:15;;;;;;;15.32;5.85;;;;;;;3.92;99.38;95558.25;5117648;27;20195;-78
2022/12/29 01:45:48;;;;;;;12.52;7.30;;;;;;;4.02;98.92;95560.16;5118503;27;20890;-79
2022/12/29 01:48:16;;;;;;;12.98;5.65;;;;;;;4.12;98.13;95558.31;5118378;27;20185;-78
2022/12/29 01:50:47;;;;;;;11.50;5.55;;;;;;;4.13;97.32;95551.88;5131270;27;20201;-78
2022/12/29 01:53:21;;;;;;;14.18;5.90;;;;;;;4.21;97.08;95553.25;5122642;27;20201;-79
2022/12/29 01:55:52;;;;;;;11.68;6.40;;;;;;;4.20;96.79;95549.78;5127573;27;20190;-78
2022/12/29 01:58:22;;;;;;;15.57;7.65;;;;;;;4.28;96.46;95545.75;5123083;27;20249;-79
2022/12/29 02:00:49;;;;;;;14.25;6.55;;;;;;;4.15;96.89;95544.38;5116955;27;20229;-79
2022/12/29 02:03:20;;;;;;;10.82;6.60;;;;;;;4.33;96.47;95544.97;5119437;27;20217;-79
2022/12/29 02:05:50;;;;;;;10.90;5.35;;;;;;;4.35;95.81;95542.81;5124369;27;20205;-79
2022/12/29 02:08:20;;;;;;;16.50;6.10;;;;;;;4.48;95.17;95534.25;5122114;27;20197;-80
2022/12/29 02:10:48;;;;;;;12.32;5.95;;;;;;;4.56;95.09;95539.09;5125227;27;20224;-78
2022/12/29 02:13:17;;;;;;;14.98;6.85;;;;;;;4.64;94.60;95530.53;5122945;27;20292;-78
2022/12/29 02:15:55;;;;;;;12.88;6.40;;;;;;;4.57;94.65;95540.69;5117302;27;20286;-78
2022/12/29 02:18:31;;;;;;;11.50;5.88;;;;;;;4.40;94.98;95535.59;5117613;27;20537;-78
2022/12/29 02:21:31;;;;;;;12.65;5.78;;;;;;;4.39;94.79;95533.16;5121370;27;20190;-78
2022/12/29 02:24:28;;;;;;;17.38;6.60;;;;;;;4.50;94.11;95529.44;5118030;27;20210;-79
2022/12/29 02:27:28;;;;;;;13.90;5.57;;;;;;;4.48;94.13;95531.59;5116659;27;20225;-79
2022/12/29 02:30:06;;;;;;;9.93;5.22;;;;;;;4.38;94.43;95531.53;5105583;27;20208;-79
2022/12/29 02:32:43;;;;;;;13.10;7.85;;;;;;;4.45;94.41;95532.91;5130725;27;20185;-79
2022/12/29 02:35:21;;;;;;;13.88;5.18;;;;;;;4.53;94.05;95528.88;5116915;28;20671;-79
2022/12/29 02:38:00;;;;;;;15.93;6.25;;;;;;;4.40;94.06;95529.41;5129565;27;20196;-79
2022/12/29 02:40:38;;;;;;;10.93;5.05;;;;;;;4.26;94.54;95535.28;5120032;27;20188;-79
2022/12/29 02:43:11;;;;;;;9.10;5.35;;;;;;;4.25;94.90;95528.31;5117088;27;20197;-79
2022/12/29 02:45:46;;;;;;;9.20;5.10;;;;;;;4.13;96.09;95533.13;5130882;27;20189;-79
2022/12/29 02:48:21;;;;;;;17.05;6.75;;;;;;;4.18;97.07;95535.81;5117358;28;20220;-79
2022/12/29 02:50:54;;;;;;;11.23;6.65;;;;;;;4.21;96.82;95537.97;5131000;28;20208;-79
2022/12/29 02:54:40;;;;;;;8.38;5.18;;;;;;;3.93;97.53;95531.19;5120159;28;20952;-79
2022/12/29 02:56:08;;;;;;;11.23;6.07;;;;;;;4.22;97.74;95534.22;5123592;28;20207;-78
2022/12/29 02:58:35;;;;;;;9.27;6.10;;;;;;;4.40;96.39;95526.72;5117340;28;20205;-79
2022/12/29 03:01:24;;;;;;;10.07;6.07;;;;;;;4.51;95.48;95525.69;5123547;28;20213;-79
2022/12/29 03:04:19;;;;;;;13.18;6.70;;;;;;;4.49;94.96;95511.72;5123753;28;20246;-79
2022/12/29 03:06:57;;;;;;;12.57;6.18;;;;;;;4.48;94.71;95520.84;5122916;28;20265;-79
2022/12/29 03:09:35;;;;;;;14.00;6.93;;;;;;;4.43;94.86;95512.78;5118045;28;20184;-79
2022/12/29 03:12:12;;;;;;;12.25;5.63;;;;;;;4.56;94.31;95520.31;5130587;28;20201;-79
2022/12/29 03:17:42;;;;;;;8.75;4.72;;;;;;;4.70;93.02;95518.69;5110018;28;20193;-79
2022/12/29 03:20:16;;;;;;;12.35;5.40;;;;;;;4.77;92.13;95521.94;5112334;27;20265;-80
2022/12/29 03:22:49;;;;;;;9.93;5.07;;;;;;;4.71;91.76;95509.59;5124504;27;20189;-79
2022/12/29 03:25:21;;;;;;;10.73;6.15;;;;;;;4.53;92.78;95507.41;5127532;27;20250;-79
2022/12/29 03:27:52;;;;;;;10.25;5.57;;;;;;;4.41;92.95;95509.56;5125614;27;20736;-79
2022/12/29 03:30:19;;;;;;;11.38;5.90;;;;;;;4.28;93.38;95505.53;5133807;27;20189;-79
2022/12/29 03:32:49;;;;;;;13.85;7.07;;;;;;;4.14;93.75;95515.97;5121050;27;20201;-79
2022/12/29 03:35:22;;;;;;;10.68;6.07;;;;;;;3.99;94.85;95513.25;5127157;27;20217;-79
2022/12/29 03:37:53;;;;;;;14.43;6.40;;;;;;;3.90;95.63;95515.63;5114331;27;20267;-79
2022/12/29 03:40:23;;;;;;;11.30;5.15;;;;;;;3.81;96.21;95521.78;5125546;27;20752;-79
2022/12/29 03:42:51;;;;;;;11.18;5.72;;;;;;;3.72;96.61;95517.97;5126895;27;20805;-79
2022/12/29 03:45:17;;;;;;;17.38;5.45;;;;;;;3.60;96.44;95512.84;5121510;27;20262;-78
2022/12/29 03:47:44;;;;;;;13.98;7.18;;;;;;;3.42;98.38;95516.78;5120097;27;20272;-77
2022/12/29 03:50:12;;;;;;;15.07;5.85;;;;;;;3.35;98.88;95521.56;5133324;27;20305;-77
2022/12/29 03:52:40;;;;;;;13.80;7.10;;;;;;;3.33;98.84;95523.69;5129773;27;20247;-78
2022/12/29 03:55:08;;;;;;;14.23;6.25;;;;;;;3.36;98.64;95525.88;5123870;27;20197;-79
2022/12/29 03:57:34;;;;;;;12.40;5.88;;;;;;;3.31;98.82;95528.50;5127631;27;20558;-78
2022/12/29 04:00:01;;;;;;;8.85;5.82;;;;;;;3.18;98.37;95542.34;5122065;27;20243;-79
2022/12/29 04:02:28;;;;;;;8.45;4.72;;;;;;;2.92;100.00;95545.91;5131162;27;20220;-78
2022/12/29 04:04:55;;;;;;;15.43;6.63;;;;;;;2.87;100.00;95543.22;5121666;27;20197;-79
2022/12/29 04:07:21;;;;;;;9.52;5.25;;;;;;;2.71;100.00;95545.78;5117390;27;20241;-79
2022/12/29 04:09:50;;;;;;;10.88;5.10;;;;;;;2.83;100.00;95549.09;5121492;27;20808;-79
2022/12/29 04:12:16;;;;;;;8.32;4.43;;;;;;;2.83;100.00;95551.75;5126528;27;20209;-79
2022/12/29 04:14:43;;;;;;;10.82;4.70;;;;;;;2.77;100.00;95539.38;5124162;27;20200;-78
2022/12/29 04:17:10;;;;;;;7.32;4.25;;;;;;;2.83;100.00;95543.72;5119073;27;20200;-79
2022/12/29 04:19:37;;;;;;;14.25;5.78;;;;;;;2.78;100.00;95545.53;5121201;27;20209;-79
2022/12/29 04:22:03;;;;;;;6.50;4.15;;;;;;;2.70;100.00;95546.84;5126178;27;20263;-79
2022/12/29 04:24:30;;;;;;;9.20;4.97;;;;;;;2.62;100.00;95555.31;5124126;27;20675;-79
2022/12/29 04:26:58;;;;;;;7.78;4.75;;;;;;;2.67;100.00;95549.22;5119038;27;20640;-79
2022/12/29 04:29:25;;;;;;;11.63;6.40;;;;;;;2.63;100.00;95548.09;5120639;27;20210;-79
2022/12/29 04:31:52;;;;;;;10.18;4.75;;;;;;;2.62;100.00;95552.63;5130770;27;20893;-79
2022/12/29 04:34:18;;;;;;;8.77;4.28;;;;;;;2.65;100.00;95565.50;5119629;27;20726;-79
2022/12/29 04:36:45;;;;;;;8.27;4.72;;;;;;;2.65;100.00;95562.84;5131720;27;20216;-79
2022/12/29 04:39:12;;;;;;;16.10;7.00;;;;;;;2.62;100.00;95558.00;5119719;27;20845;-79
2022/12/29 04:41:39;;;;;;;8.30;4.50;;;;;;;2.59;100.00;95574.56;5132264;27;20659;-79
2022/12/29 04:44:07;;;;;;;9.98;4.10;;;;;;;2.53;100.00;95564.06;5119364;27;20609;-79
2022/12/29 04:46:34;;;;;;;12.07;3.85;;;;;;;2.46;100.00;95564.28;5132026;27;20613;-80
2022/12/29 04:49:07;;;;;;;14.80;6.05;;;;;;;2.56;100.00;95575.06;5120038;27;20255;-79
2022/12/29 04:51:34;;;;;;;9.07;5.40;;;;;;;2.50;100.00;95576.06;5114328;27;20300;-79
2022/12/29 04:54:01;;;;;;;16.38;5.90;;;;;;;2.49;100.00;95575.25;5118603;27;20238;-78
2022/12/29 04:56:27;;;;;;;11.27;4.95;;;;;;;2.57;100.00;95587.38;5126724;27;20197;-79
2022/12/29 04:58:54;;;;;;;10.93;5.32;;;;;;;2.53;100.00;95578.25;5118477;27;20604;-79
2022/12/29 05:01:22;;;;;;;13.32;5.38;;;;;;;2.61;100.00;95579.63;5132165;27;20703;-79
2022/12/29 05:03:50;;;;;;;14.00;6.50;;;;;;;2.68;100.00;95591.75;5118147;27;20254;-79
2022/12/29 05:06:17;;;;;;;13.38;5.32;;;;;;;2.76;100.00;95583.25;5123198;27;20267;-79
2022/12/29 05:08:44;;;;;;;10.00;5.38;;;;;;;2.77;100.00;95579.53;5125268;27;20248;-79
2022/12/29 05:11:11;;;;;;;13.00;6.07;;;;;;;2.81;100.00;95583.31;5121081;27;20603;-79
2022/12/29 05:13:38;;;;;;;16.02;7.85;;;;;;;2.82;100.00;95582.25;5118206;27;20241;-79
2022/12/29 05:16:05;;;;;;;12.43;4.90;;;;;;;2.96;100.00;95576.47;5123318;27;20254;-79
2022/12/29 05:18:33;;;;;;;14.48;7.68;;;;;;;3.03;100.00;95577.03;5124969;27;20201;-79
2022/12/29 05:21:02;;;;;;;10.50;5.07;;;;;;;3.00;100.00;95569.53;5121444;27;20196;-79
2022/12/29 05:23:29;;;;;;;14.63;8.20;;;;;;;2.77;100.00;95571.50;5118471;27;20201;-79
2022/12/29 05:25:56;;;;;;;8.93;5.35;;;;;;;2.89;100.00;95567.81;5122490;27;20205;-78
2022/12/29 05:28:22;;;;;;;11.35;6.05;;;;;;;2.89;100.00;95571.31;5125207;27;20279;-78
2022/12/29 05:30:50;;;;;;;17.55;7.47;;;;;;;3.08;100.00;95579.75;5121377;27;20201;-78
2022/12/29 05:33:16;;;;;;;8.02;5.65;;;;;;;3.13;100.00;95566.44;5118100;27;20217;-79
2022/12/29 05:35:45;;;;;;;14.85;6.45;;;;;;;3.21;100.00;95561.38;5132098;27;20701;-78
2022/12/29 05:38:12;;;;;;;13.85;6.50;;;;;;;3.32;99.63;95572.97;5114033;27;20213;-78
2022/12/29 05:40:41;;;;;;;7.20;6.32;;;;;;;3.43;99.51;95574.63;5122321;27;20205;-79
2022/12/29 05:43:07;;;;;;;11.02;5.82;;;;;;;3.47;99.54;95581.09;5117063;27;20209;-79
2022/12/29 05:45:34;;;;;;;15.02;7.25;;;;;;;3.48;99.04;95582.69;5120475;27;20194;-79
2022/12/29 05:48:01;;;;;;;15.25;6.85;;;;;;;3.48;98.65;95566.63;5115445;27;20224;-79
2022/12/29 05:50:28;;;;;;;12.00;7.15;;;;;;;3.24;98.46;95557.38;5132014;27;20213;-79
2022/12/29 05:52:56;;;;;;;10.13;6.28;;;;;;;3.55;99.22;95585.94;5131426;27;20732;-79
2022/12/29 05:55:23;;;;;;;16.05;7.10;;;;;;;3.44;99.07;95580.78;5131729;27;20208;-78
2022/12/29 05:57:49;;;;;;;11.93;6.47;;;;;;;3.53;99.31;95585.41;5124480;27;20202;-80
2022/12/29 06:00:17;;;;;;;11.15;5.97;;;;;;;3.64;99.29;95597.00;5123103;27;20589;-79
2022/12/29 06:02:43;;;;;;;14.88;6.38;;;;;;;3.58;99.31;95593.47;5117407;27;20224;-79
2022/12/29 06:05:10;;;;;;;18.92;8.10;;;;;;;3.83;99.07;95592.78;5118542;27;20657;-80
2022/12/29 06:07:37;;;;;;;9.95;6.28;;;;;;;3.86;98.26;95588.78;5117923;27;20234;-79
2022/12/29 06:10:06;;;;;;;21.38;8.15;;;;;;;3.96;98.47;95591.53;5117402;27;20205;-78
2022/12/29 06:12:33;;;;;;;17.45;9.10;;;;;;;4.05;98.14;95592.63;5117462;27;20197;-78
2022/12/29 06:15:00;;;;;;;14.75;6.72;;;;;;;4.19;97.81;95595.63;5118033;27;20261;-78
2022/12/29 06:17:26;;;;;;;14.45;7.88;;;;;;;4.27;97.28;95590.53;5117986;27;20204;-78
2022/12/29 06:19:53;;;;;;;14.20;6.93;;;;;;;4.42;96.43;95588.97;5115950;27;20551;-78
2022/12/29 06:22:20;;;;;;;15.23;8.07;;;;;;;4.67;95.50;95594.38;5117244;27;20201;-78
2022/12/29 06:24:47;;;;;;;11.38;7.25;;;;;;;4.83;95.37;95590.63;5116785;27;20258;-78
2022/12/29 06:27:17;;;;;;;12.80;7.70;;;;;;;4.87;94.53;95589.03;5123524;27;20281;-79
2022/12/29 06:29:44;;;;;;;18.50;9.15;;;;;;;5.09;93.69;95590.63;5124271;27;20197;-78
2022/12/29 06:32:11;;;;;;;13.38;6.60;;;;;;;5.24;92.88;95582.56;5118395;27;20193;-79
2022/12/29 06:34:38;;;;;;;18.35;8.18;;;;;;;5.34;91.99;95587.94;5117084;27;20225;-79
2022/12/29 06:37:04;;;;;;;14.52;7.97;;;;;;;5.32;92.52;95590.09;5122106;27;20298;-78
2022/12/29 06:39:31;;;;;;;11.13;7.20;;;;;;;5.23;92.17;95597.88;5124421;27;20208;-79
2022/12/29 06:41:58;;;;;;;16.58;8.43;;;;;;;5.42;92.43;95587.41;5119106;27;20201;-79
2022/12/29 06:44:26;;;;;;;18.75;7.93;;;;;;;5.36;91.46;95591.16;5115264;27;20649;-79
2022/12/29 06:46:53;;;;;;;11.82;6.88;;;;;;;5.35;92.20;95601.09;5110296;28;20197;-79
2022/12/29 06:49:20;;;;;;;17.45;8.57;;;;;;;5.38;91.98;95599.75;5125936;28;20228;-79
2022/12/29 06:51:47;;;;;;;15.32;8.20;;;;;;;5.28;92.19;95591.72;5130798;28;20197;-80
2022/12/29 06:54:13;;;;;;;11.38;6.68;;;;;;;5.37;92.37;95592.78;5117755;27;20213;-78
2022/12/29 06:56:40;;;;;;;21.88;9.35;;;;;;;5.49;92.65;95601.34;5128203;27;20197;-78
2022/12/29 06:59:07;;;;;;;21.63;7.85;;;;;;;5.65;92.00;95605.63;5121426;27;20265;-79
2022/12/29 07:01:35;;;;;;;22.50;10.07;;;;;;;5.72;91.35;95606.16;5124111;27;20776;-78
2022/12/29 07:04:02;;;;;;;15.88;8.98;;;;;;;6.01;90.44;95602.88;5128865;27;20208;-79
2022/12/29 07:06:29;;;;;;;21.50;9.57;;;;;;;5.82;89.60;95597.25;5124573;27;20212;-79
2022/12/29 07:08:57;;;;;;;13.07;6.78;;;;;;;5.89;89.54;95599.66;5120889;27;20276;-79
2022/12/29 07:11:24;;;;;;;12.63;6.95;;;;;;;6.20;90.03;95597.69;5134511;27;20196;-79
2022/12/29 07:13:51;;;;;;;18.80;8.63;;;;;;;6.25;88.64;95606.53;5120246;27;20277;-79
2022/12/29 07:16:18;;;;;;;20.38;9.10;;;;;;;6.46;87.98;95603.72;5134763;27;20278;-79
2022/12/29 07:18:46;;;;;;;14.73;8.82;;;;;;;6.64;86.72;95600.41;5134290;27;20200;-79
2022/12/29 07:21:12;;;;;;;20.60;12.40;;;;;;;6.71;86.19;95595.50;5134158;27;20258;-78
2022/12/29 07:23:40;;;;;;;24.63;10.63;;;;;;;6.78;85.46;95601.41;5129218;27;20309;-78
2022/12/29 07:26:10;;;;;;;20.55;9.60;;;;;;;6.98;84.47;95595.84;5114064;28;20201;-79
2022/12/29 07:28:37;;;;;;;29.45;9.48;;;;;;;7.11;84.08;95595.22;5127334;27;20278;-78
2022/12/29 07:31:04;;;;;;;17.77;8.98;;;;;;;7.02;83.90;95602.31;5126964;27;20203;-79
2022/12/29 07:33:32;;;;;;;18.75;10.75;;;;;;;7.22;83.39;95601.34;5120205;27;20221;-78
2022/12/29 07:36:01;;;;;;;15.75;8.50;;;;;;;6.95;82.79;95596.44;5121007;27;20617;-78
2022/12/29 07:38:27;;;;;;;20.05;11.05;;;;;;;6.69;83.77;95600.38;5120149;27;20205;-78
2022/12/29 07:40:58;;;;;;;13.18;8.32;;;;;;;6.46;84.30;95599.16;5120543;27;20206;-79
2022/12/29 07:43:24;;;;;;;15.82;9.82;;;;;;;6.27;84.91;95601.69;5120483;27;20201;-79
2022/12/29 07:45:51;;;;;;;17.75;9.98;;;;;;;6.60;84.85;95604.72;5119815;27;20201;-79
2022/12/29 07:48:18;;;;;;;23.02;10.07;;;;;;;6.40;84.55;95597.59;5120573;27;20229;-79
2022/12/29 07:50:45;;;;;;;19.15;9.30;;;;;;;6.69;85.00;95600.38;5133894;27;20193;-79
2022/12/29 07:53:13;;;;;;;17.30;8.50;;;;;;;6.47;84.53;95600.78;5125428;27;20208;-79
2022/12/29 07:55:40;;;;;;;17.90;9.48;;;;;;;6.61;84.43;95606.34;5127429;27;20204;-80
2022/12/29 07:58:06;;;;;;;20.95;9.10;;;;;;;6.79;83.55;95603.00;5121258;27;20197;-79
2022/12/29 08:00:33;;;;;;;16.92;8.63;;;;;;;7.00;82.48;95604.47;5115406;27;20217;-79
2022/12/29 08:03:00;;;;;;;28.52;15.20;;;;;;;7.46;80.64;95601.41;5134334;27;20205;-79
2022/12/29 08:05:27;;;;;;;21.33;9.70;;;;;;;7.65;79.25;95591.53;5133799;27;20597;-79
2022/12/29 08:07:54;;;;;;;17.25;9.82;;;;;;;7.89;78.82;95615.00;5125141;27;20904;-81
2022/12/29 08:10:23;;;;;;;20.00;10.10;;;;;;;7.66;77.70;95606.59;5129387;27;20242;-80
2022/12/29 08:12:50;;;;;;;19.80;8.50;;;;;;;7.44;78.79;95603.56;5124596;27;20809;-79
2022/12/29 08:15:17;;;;;;;18.02;10.32;;;;;;;7.59;79.25;95606.13;5127408;27;20605;-80
2022/12/29 08:17:44;;;;;;;24.85;10.60;;;;;;;7.77;78.15;95602.72;5122696;27;20201;-78
2022/12/29 08:20:11;;;;;;;43.92;13.80;;;;;;;7.85;77.36;95594.00;5120076;27;20205;-79
2022/12/29 08:22:37;;;;;;;38.70;18.95;;;;;;;8.15;77.05;95597.44;5123986;27;20205;-79
2022/12/29 08:25:05;;;;;;;37.03;19.02;;;;;;;8.27;76.40;95589.75;5126649;27;20579;-79
2022/12/29 08:27:33;;;;;;;23.27;11.05;;;;;;;8.38;75.92;95588.53;5122578;27;20207;-79
2022/12/29 08:30:00;;;;;;;19.30;9.45;;;;;;;8.38;75.12;95591.25;5119438;27;20285;-79
2022/12/29 08:32:28;;;;;;;35.88;17.33;;;;;;;8.43;74.80;95587.69;5123455;27;20583;-82
2022/12/29 08:34:55;;;;;;;21.25;11.68;;;;;;;8.40;74.90;95589.06;5126313;27;20201;-80
2022/12/29 08:37:21;;;;;;;18.33;8.13;;;;;;;8.30;74.96;95594.56;5123024;27;20254;-79
2022/12/29 08:39:48;;;;;;;16.10;9.15;;;;;;;8.43;75.37;95588.50;5118949;27;20899;-80
2022/12/29 08:42:15;;;;;;;22.33;10.18;;;;;;;8.54;74.66;95587.25;5123306;27;20205;-79
2022/12/29 08:44:43;;;;;;;20.23;10.13;;;;;;;8.41;74.18;95585.28;5126265;27;20202;-79
2022/12/29 08:47:11;;;;;;;14.38;7.25;;;;;;;8.22;74.74;95600.59;5122843;27;20269;-79
2022/12/29 08:49:38;;;;;;;23.80;10.57;;;;;;;7.80;76.07;95591.34;5133127;27;20221;-79
2022/12/29 08:52:06;;;;;;;22.23;9.50;;;;;;;7.56;77.27;95605.88;5132703;27;20257;-79
2022/12/29 08:54:32;;;;;;;15.63;8.32;;;;;;;7.33;77.44;95602.06;5118940;27;20193;-78
2022/12/29 08:56:59;;;;;;;16.48;8.90;;;;;;;7.36;78.26;95596.91;5126852;27;20599;-79
2022/12/29 08:59:26;;;;;;;28.55;16.27;;;;;;;7.45;77.22;95597.09;5118855;27;20532;-78
2022/12/29 09:01:55;;;;;;;15.88;7.60;;;;;;;7.19;78.01;95584.94;5118998;27;20229;-80
2022/12/29 09:04:23;;;;;;;8.63;4.30;;;;;;;7.37;77.28;95586.94;5119421;27;20193;-79
2022/12/29 09:06:50;;;;;;;19.05;9.50;;;;;;;7.12;78.87;95585.25;5118733;27;20202;-81
2022/12/29 09:09:18;;;;;;;9.57;5.32;;;;;;;7.14;78.27;95583.88;5132633;27;20247;-80
2022/12/29 09:11:45;;;;;;;17.00;8.55;;;;;;;7.16;78.79;95580.91;5131688;27;20699;-81
2022/12/29 09:14:12;;;;;;;16.35;8.48;;;;;;;7.06;79.41;95587.19;5118860;27;21108;-80
2022/12/29 09:16:39;;;;;;;14.23;8.13;;;;;;;7.16;79.54;95582.78;5131813;27;20204;-79
2022/12/29 09:19:07;;;;;;;20.02;10.00;;;;;;;7.48;78.67;95572.28;5123928;27;20205;-80
2022/12/29 09:21:34;;;;;;;16.77;9.25;;;;;;;7.66;77.85;95568.84;5125678;27;20201;-80
2022/12/29 09:24:01;;;;;;;19.90;10.38;;;;;;;7.93;76.87;95570.16;5111244;28;20205;-79
2022/12/29 09:26:30;;;;;;;18.98;9.90;;;;;;;8.06;75.60;95566.81;5126285;27;20201;-79
2022/12/29 09:28:57;;;;;;;34.42;10.07;;;;;;;8.26;75.25;95568.44;5123886;27;20233;-79
2022/12/29 09:31:30;;;;;;;36.08;18.67;;;;;;;8.52;73.66;95551.63;5125504;27;20193;-79
2022/12/29 09:33:57;;;;;;;10.93;6.45;;;;;;;8.38;74.05;95553.44;5121070;27;20236;-80
2022/12/29 09:36:27;;;;;;;18.73;9.15;;;;;;;8.03;74.38;95567.38;5118527;27;20266;-79
2022/12/29 09:38:54;;;;;;;23.85;10.77;;;;;;;8.28;75.43;95558.97;5132007;27;20201;-80
2022/12/29 09:41:27;;;;;;;18.63;9.07;;;;;;;8.42;74.20;95549.06;5128455;27;20210;-79
2022/12/29 09:44:07;;;;;;;19.88;10.07;;;;;;;8.36;74.76;95546.72;5122613;27;20208;-80
2022/12/29 09:46:38;;;;;;;20.30;10.45;;;;;;;8.62;74.67;95552.56;5118087;27;20615;-80
2022/12/29 09:49:20;;;;;;;18.80;9.07;;;;;;;8.68;73.29;95551.41;5118394;27;20655;-80
2022/12/29 09:51:52;;;;;;;16.83;9.07;;;;;;;8.15;75.19;95544.28;5131829;27;20193;-80
2022/12/29 09:54:40;;;;;;;20.02;10.23;;;;;;;8.20;74.82;95552.28;5131337;27;20230;-80
2022/12/29 09:57:16;;;;;;;21.00;9.93;;;;;;;8.64;74.06;95532.28;5126000;27;20241;-80
2022/12/29 09:59:44;;;;;;;17.98;7.72;;;;;;;8.52;73.47;95537.31;5120215;27;20188;-79
2022/12/29 10:02:24;;;;;;;15.90;9.00;;;;;;;8.55;73.16;95539.44;5129779;27;20292;-79
2022/12/29 10:04:52;;;;;;;18.05;9.98;;;;;;;8.64;72.74;95536.88;5122349;27;20204;-79
2022/12/29 10:07:31;;;;;;;32.85;14.07;;;;;;;8.40;73.51;95529.66;5117721;27;20236;-79
2022/12/29 10:10:11;;;;;;;18.63;9.88;;;;;;;8.49;73.89;95522.50;5118064;27;20715;-79
2022/12/29 10:12:53;;;;;;;14.70;7.57;;;;;;;8.58;73.77;95513.75;5118934;27;20224;-80
2022/12/29 10:15:36;;;;;;;18.20;9.25;;;;;;;8.54;73.89;95519.75;5117584;27;20227;-80
2022/12/29 10:18:16;;;;;;;14.25;7.72;;;;;;;8.41;74.41;95515.06;5117957;27;20608;-80
2022/12/29 10:20:51;;;;;;;21.08;10.52;;;;;;;8.39;74.44;95514.56;5118870;27;20229;-79
2022/12/29 10:23:30;;;;;;;24.65;11.30;;;;;;;8.51;74.25;95520.31;5118412;27;20266;-80
2022/12/29 10:25:59;;;;;;;18.42;9.23;;;;;;;8.97;74.29;95514.22;5120496;27;20194;-80
2022/12/29 10:28:35;;;;;;;32.70;18.23;;;;;;;9.23;72.71;95507.28;5115624;27;20201;-81
2022/12/29 10:31:07;;;;;;;19.58;10.30;;;;;;;9.22;71.62;95500.28;5130480;27;20648;-79
2022/12/29 10:33:38;;;;;;;37.42;19.90;;;;;;;9.27;71.55;95505.59;5124596;27;20350;-79
2022/12/29 10:36:14;;;;;;;20.50;10.50;;;;;;;9.43;71.11;95502.63;5124058;27;20197;-79
2022/12/29 10:38:52;;;;;;;22.13;11.32;;;;;;;9.31;71.49;95496.88;5119847;27;20189;-81
2022/12/29 10:41:29;;;;;;;20.77;11.07;;;;;;;9.17;71.31;95494.94;5116891;27;20279;-80
2022/12/29 10:43:58;;;;;;;21.90;11.60;;;;;;;9.34;71.52;95488.16;5119001;27;20597;-80
2022/12/29 10:46:29;;;;;;;24.10;9.77;;;;;;;9.60;70.60;95486.59;5131572;27;20204;-80
2022/12/29 10:48:58;;;;;;;23.58;11.93;;;;;;;9.41;70.91;95491.31;5117377;27;20218;-80
2022/12/29 10:51:28;;;;;;;18.92;9.88;;;;;;;9.26;71.91;95486.97;5117370;28;20201;-79
2022/12/29 10:54:02;;;;;;;28.00;11.35;;;;;;;9.32;72.10;95480.34;5116855;28;20205;-80
2022/12/29 10:56:34;;;;;;;30.58;12.95;;;;;;;9.48;71.68;95480.88;5116021;28;20690;-79
2022/12/29 10:59:10;;;;;;;21.80;11.07;;;;;;;9.24;72.77;95475.66;5124567;28;20292;-81
2022/12/29 11:01:50;;;;;;;22.63;10.30;;;;;;;9.52;71.93;95465.66;5121967;28;20318;-80
2022/12/29 11:04:33;;;;;;;16.10;9.25;;;;;;;9.39;71.43;95464.56;5117702;28;20196;-79
2022/12/29 11:07:01;;;;;;;21.52;9.40;;;;;;;9.37;71.27;95452.44;5129713;28;20185;-80
2022/12/29 11:09:32;;;;;;;26.52;11.40;;;;;;;9.40;71.45;95451.84;5118765;28;20233;-81
2022/12/29 11:11:59;;;;;;;34.00;18.85;;;;;;;9.38;71.50;95451.34;5116607;28;20198;-78
2022/12/29 11:14:31;;;;;;;34.92;19.33;;;;;;;9.41;71.41;95456.16;5120569;28;20232;-79
2022/12/29 11:16:59;;;;;;;25.50;11.65;;;;;;;9.40;70.97;95449.13;5124129;28;20190;-79
2022/12/29 11:19:28;;;;;;;18.23;10.10;;;;;;;9.38;71.43;95446.72;5121105;28;20200;-80
2022/12/29 11:21:55;;;;;;;38.47;19.75;;;;;;;9.52;71.77;95446.72;5116807;28;20250;-79
2022/12/29 11:24:35;;;;;;;35.22;21.17;;;;;;;9.76;72.41;95452.72;5118931;28;20665;-80
2022/12/29 11:27:17;;;;;;;40.92;19.92;;;;;;;9.88;69.90;95450.31;5123635;28;20205;-80
2022/12/29 11:29:49;;;;;;;37.08;20.30;;;;;;;9.49;70.88;95436.50;5111000;28;20213;-80
2022/12/29 11:32:23;;;;;;;26.08;12.90;;;;;;;9.65;71.16;95437.81;5120637;28;20916;-80
2022/12/29 11:34:52;;;;;;;43.33;20.50;;;;;;;9.55;71.27;95435.31;5113422;28;20219;-81
2022/12/29 11:37:24;;;;;;;38.25;21.08;;;;;;;9.25;71.50;95442.09;5118826;28;20204;-80
2022/12/29 11:40:01;;;;;;;33.47;19.77;;;;;;;9.59;70.70;95437.09;5122600;28;20205;-79
2022/12/29 11:42:36;;;;;;;40.42;20.70;;;;;;;9.69;71.84;95432.59;5111745;28;20294;-81
2022/12/29 11:45:17;;;;;;;34.83;20.90;;;;;;;9.84;70.55;95427.66;5113105;28;20637;-81
2022/12/29 11:47:51;;;;;;;38.40;20.15;;;;;;;9.80;70.61;95429.38;5130981;27;20212;-80
2022/12/29 11:50:27;;;;;;;38.47;20.55;;;;;;;9.81;70.57;95439.09;5122296;27;20213;-80
2022/12/29 11:53:06;;;;;;;34.40;14.27;;;;;;;9.80;70.67;95429.38;5126743;27;20185;-80
2022/12/29 11:55:34;;;;;;;25.98;12.05;;;;;;;9.61;70.93;95424.06;5127104;27;20242;-79
2022/12/29 11:58:15;;;;;;;20.73;10.25;;;;;;;9.59;70.91;95423.56;5129309;27;20200;-80
2022/12/29 12:00:47;;;;;;;19.50;9.82;;;;;;;9.56;71.15;95431.50;5120220;27;20712;-79
2022/12/29 12:03:22;;;;;;;24.08;11.13;;;;;;;9.51;71.89;95418.06;5124063;27;20201;-80
2022/12/29 12:05:54;;;;;;;32.88;18.35;;;;;;;9.76;71.56;95424.88;5118555;27;20692;-80
2022/12/29 12:08:35;;;;;;;21.13;9.82;;;;;;;9.75;70.74;95428.69;5133915;27;20185;-80
2022/12/29 12:11:10;;;;;;;30.40;17.27;;;;;;;9.83;71.29;95420.66;5121480;27;20711;-80
2022/12/29 12:13:47;;;;;;;23.85;12.20;;;;;;;9.96;69.89;95424.44;5119859;27;20237;-80
2022/12/29 12:16:19;;;;;;;31.48;18.02;;;;;;;10.26;70.24;95420.28;5122653;27;20232;-80